sensor_id;sensor_type;location;lat;lon;timestamp;P1;durP1;ratioP1;P2;durP2;ratioP2
16460;SDS011;8341;42.048;24.650;2022-11-15T00:02:17;10.73;;;8.02;;
16460;SDS011;8341;42.048;24.650;2022-11-15T00:04:44;11.93;;;7.28;;
16460;SDS011;8341;42.048;24.650;2022-11-15T00:07:11;12.30;;;7.75;;
16460;SDS011;8341;42.048;24.650;2022-11-15T00:09:40;12.02;;;7.72;;
16460;SDS011;8341;42.048;24.650;2022-11-15T00:12:07;12.10;;;8.40;;
16460;SDS011;8341;42.048;24.650;2022-11-15T00:14:34;12.07;;;7.53;;
16460;SDS011;8341;42.048;24.650;2022-11-15T00:17:01;9.57;;;6.00;;
16460;SDS011;8341;42.048;24.650;2022-11-15T00:19:28;10.90;;;7.10;;
16460;SDS011;8341;42.048;24.650;2022-11-15T00:21:55;12.68;;;7.43;;
16460;SDS011;8341;42.048;24.650;2022-11-15T00:24:22;13.73;;;8.32;;
16460;SDS011;8341;42.048;24.650;2022-11-15T00:26:51;14.40;;;8.27;;
16460;SDS011;8341;42.048;24.650;2022-11-15T00:29:18;11.57;;;8.65;;
16460;SDS011;8341;42.048;24.650;2022-11-15T00:31:45;12.38;;;7.85;;
16460;SDS011;8341;42.048;24.650;2022-11-15T00:34:12;12.13;;;7.55;;
16460;SDS011;8341;42.048;24.650;2022-11-15T00:36:39;11.90;;;8.02;;
16460;SDS011;8341;42.048;24.650;2022-11-15T00:39:06;16.13;;;8.88;;
16460;SDS011;8341;42.048;24.650;2022-11-15T00:41:34;10.88;;;7.05;;
16460;SDS011;8341;42.048;24.650;2022-11-15T00:44:02;10.65;;;7.25;;
16460;SDS011;8341;42.048;24.650;2022-11-15T00:46:29;10.23;;;7.15;;
16460;SDS011;8341;42.048;24.650;2022-11-15T00:48:56;12.45;;;7.13;;
16460;SDS011;8341;42.048;24.650;2022-11-15T00:51:24;12.15;;;9.20;;
16460;SDS011;8341;42.048;24.650;2022-11-15T00:53:50;11.52;;;6.95;;
16460;SDS011;8341;42.048;24.650;2022-11-15T00:56:17;13.23;;;7.75;;
16460;SDS011;8341;42.048;24.650;2022-11-15T00:58:44;11.23;;;8.15;;
16460;SDS011;8341;42.048;24.650;2022-11-15T01:01:13;13.30;;;7.90;;
16460;SDS011;8341;42.048;24.650;2022-11-15T01:03:41;13.27;;;8.10;;
16460;SDS011;8341;42.048;24.650;2022-11-15T01:06:08;12.45;;;7.80;;
16460;SDS011;8341;42.048;24.650;2022-11-15T01:08:37;10.82;;;7.00;;
16460;SDS011;8341;42.048;24.650;2022-11-15T01:11:05;13.82;;;8.10;;
16460;SDS011;8341;42.048;24.650;2022-11-15T01:13:34;11.57;;;7.82;;
16460;SDS011;8341;42.048;24.650;2022-11-15T01:16:05;11.98;;;7.72;;
16460;SDS011;8341;42.048;24.650;2022-11-15T01:18:35;11.80;;;8.02;;
16460;SDS011;8341;42.048;24.650;2022-11-15T01:21:06;13.68;;;8.25;;
16460;SDS011;8341;42.048;24.650;2022-11-15T01:23:34;12.68;;;7.93;;
16460;SDS011;8341;42.048;24.650;2022-11-15T01:26:01;13.13;;;8.32;;
16460;SDS011;8341;42.048;24.650;2022-11-15T01:28:30;13.73;;;7.93;;
16460;SDS011;8341;42.048;24.650;2022-11-15T01:30:58;14.90;;;8.15;;
16460;SDS011;8341;42.048;24.650;2022-11-15T01:33:25;11.70;;;7.68;;
16460;SDS011;8341;42.048;24.650;2022-11-15T01:35:54;12.70;;;8.32;;
16460;SDS011;8341;42.048;24.650;2022-11-15T01:38:21;12.55;;;8.43;;
16460;SDS011;8341;42.048;24.650;2022-11-15T01:40:49;11.35;;;7.22;;
16460;SDS011;8341;42.048;24.650;2022-11-15T01:43:20;14.02;;;7.93;;
16460;SDS011;8341;42.048;24.650;2022-11-15T01:45:49;14.45;;;8.73;;
16460;SDS011;8341;42.048;24.650;2022-11-15T01:48:20;13.13;;;8.35;;
16460;SDS011;8341;42.048;24.650;2022-11-15T01:50:48;12.93;;;8.35;;
16460;SDS011;8341;42.048;24.650;2022-11-15T01:53:17;16.58;;;9.55;;
16460;SDS011;8341;42.048;24.650;2022-11-15T01:55:47;17.88;;;9.30;;
16460;SDS011;8341;42.048;24.650;2022-11-15T01:58:14;16.80;;;9.70;;
16460;SDS011;8341;42.048;24.650;2022-11-15T02:00:41;16.15;;;9.90;;
16460;SDS011;8341;42.048;24.650;2022-11-15T02:03:08;11.90;;;8.32;;
16460;SDS011;8341;42.048;24.650;2022-11-15T02:05:36;12.02;;;7.32;;
16460;SDS011;8341;42.048;24.650;2022-11-15T02:08:04;11.82;;;6.93;;
16460;SDS011;8341;42.048;24.650;2022-11-15T02:10:33;8.75;;;6.13;;
16460;SDS011;8341;42.048;24.650;2022-11-15T02:13:00;6.93;;;4.53;;
16460;SDS011;8341;42.048;24.650;2022-11-15T02:15:30;7.88;;;5.18;;
16460;SDS011;8341;42.048;24.650;2022-11-15T02:18:10;14.30;;;8.25;;
16460;SDS011;8341;42.048;24.650;2022-11-15T02:26:34;12.30;;;7.43;;
16460;SDS011;8341;42.048;24.650;2022-11-15T02:29:39;8.00;;;6.57;;
16460;SDS011;8341;42.048;24.650;2022-11-15T02:32:22;8.43;;;7.00;;
16460;SDS011;8341;42.048;24.650;2022-11-15T02:34:59;7.47;;;5.57;;
16460;SDS011;8341;42.048;24.650;2022-11-15T02:37:37;8.88;;;5.88;;
16460;SDS011;8341;42.048;24.650;2022-11-15T02:40:13;10.10;;;5.18;;
16460;SDS011;8341;42.048;24.650;2022-11-15T02:42:48;9.27;;;5.93;;
16460;SDS011;8341;42.048;24.650;2022-11-15T02:45:37;11.40;;;6.55;;
16460;SDS011;8341;42.048;24.650;2022-11-15T02:48:10;9.45;;;5.70;;
16460;SDS011;8341;42.048;24.650;2022-11-15T02:50:38;9.77;;;5.38;;
16460;SDS011;8341;42.048;24.650;2022-11-15T02:53:05;6.82;;;5.07;;
16460;SDS011;8341;42.048;24.650;2022-11-15T02:55:34;9.20;;;5.65;;
16460;SDS011;8341;42.048;24.650;2022-11-15T02:58:11;7.75;;;5.75;;
16460;SDS011;8341;42.048;24.650;2022-11-15T03:00:55;8.20;;;5.35;;
16460;SDS011;8341;42.048;24.650;2022-11-15T03:03:30;11.23;;;6.97;;
16460;SDS011;8341;42.048;24.650;2022-11-15T03:06:13;13.63;;;6.32;;
16460;SDS011;8341;42.048;24.650;2022-11-15T03:08:50;9.85;;;5.65;;
16460;SDS011;8341;42.048;24.650;2022-11-15T03:11:23;11.45;;;6.30;;
16460;SDS011;8341;42.048;24.650;2022-11-15T03:13:53;8.50;;;5.82;;
16460;SDS011;8341;42.048;24.650;2022-11-15T03:16:25;7.60;;;5.07;;
16460;SDS011;8341;42.048;24.650;2022-11-15T03:18:59;7.95;;;5.03;;
16460;SDS011;8341;42.048;24.650;2022-11-15T03:21:31;7.80;;;5.45;;
16460;SDS011;8341;42.048;24.650;2022-11-15T03:24:01;11.27;;;5.47;;
16460;SDS011;8341;42.048;24.650;2022-11-15T03:26:32;8.05;;;5.03;;
16460;SDS011;8341;42.048;24.650;2022-11-15T03:29:03;10.18;;;6.78;;
16460;SDS011;8341;42.048;24.650;2022-11-15T03:31:33;14.38;;;9.23;;
16460;SDS011;8341;42.048;24.650;2022-11-15T03:34:19;13.18;;;7.10;;
16460;SDS011;8341;42.048;24.650;2022-11-15T03:36:52;8.75;;;5.82;;
16460;SDS011;8341;42.048;24.650;2022-11-15T03:39:20;9.98;;;5.70;;
16460;SDS011;8341;42.048;24.650;2022-11-15T03:41:49;9.02;;;5.72;;
16460;SDS011;8341;42.048;24.650;2022-11-15T03:44:26;8.52;;;5.88;;
16460;SDS011;8341;42.048;24.650;2022-11-15T03:47:02;8.65;;;5.97;;
16460;SDS011;8341;42.048;24.650;2022-11-15T03:49:36;9.38;;;5.38;;
16460;SDS011;8341;42.048;24.650;2022-11-15T03:52:07;8.05;;;5.28;;
16460;SDS011;8341;42.048;24.650;2022-11-15T03:54:36;8.25;;;5.38;;
16460;SDS011;8341;42.048;24.650;2022-11-15T03:57:03;8.10;;;5.93;;
16460;SDS011;8341;42.048;24.650;2022-11-15T03:59:30;10.50;;;5.85;;
16460;SDS011;8341;42.048;24.650;2022-11-15T04:01:57;7.70;;;5.40;;
16460;SDS011;8341;42.048;24.650;2022-11-15T04:04:24;11.50;;;6.65;;
16460;SDS011;8341;42.048;24.650;2022-11-15T04:06:52;9.98;;;6.53;;
16460;SDS011;8341;42.048;24.650;2022-11-15T04:09:19;9.30;;;6.30;;
16460;SDS011;8341;42.048;24.650;2022-11-15T04:11:46;7.47;;;5.20;;
16460;SDS011;8341;42.048;24.650;2022-11-15T04:14:13;8.90;;;6.03;;
16460;SDS011;8341;42.048;24.650;2022-11-15T04:16:40;8.65;;;6.22;;
16460;SDS011;8341;42.048;24.650;2022-11-15T04:19:07;8.32;;;6.28;;
16460;SDS011;8341;42.048;24.650;2022-11-15T04:21:53;10.75;;;6.65;;
16460;SDS011;8341;42.048;24.650;2022-11-15T04:24:37;10.63;;;8.20;;
16460;SDS011;8341;42.048;24.650;2022-11-15T04:27:04;9.60;;;7.18;;
16460;SDS011;8341;42.048;24.650;2022-11-15T04:29:31;11.60;;;8.43;;
16460;SDS011;8341;42.048;24.650;2022-11-15T04:32:01;10.77;;;6.50;;
16460;SDS011;8341;42.048;24.650;2022-11-15T04:34:29;8.95;;;5.82;;
16460;SDS011;8341;42.048;24.650;2022-11-15T04:36:57;9.82;;;7.20;;
16460;SDS011;8341;42.048;24.650;2022-11-15T04:39:41;8.83;;;6.50;;
16460;SDS011;8341;42.048;24.650;2022-11-15T04:42:09;7.63;;;5.53;;
16460;SDS011;8341;42.048;24.650;2022-11-15T04:44:36;10.63;;;7.70;;
16460;SDS011;8341;42.048;24.650;2022-11-15T04:47:03;9.20;;;5.88;;
16460;SDS011;8341;42.048;24.650;2022-11-15T04:49:31;11.15;;;7.40;;
16460;SDS011;8341;42.048;24.650;2022-11-15T04:51:59;10.30;;;7.80;;
16460;SDS011;8341;42.048;24.650;2022-11-15T04:54:26;9.10;;;6.10;;
16460;SDS011;8341;42.048;24.650;2022-11-15T04:56:53;12.23;;;8.85;;
16460;SDS011;8341;42.048;24.650;2022-11-15T04:59:20;13.93;;;8.18;;
16460;SDS011;8341;42.048;24.650;2022-11-15T05:01:47;13.82;;;8.70;;
16460;SDS011;8341;42.048;24.650;2022-11-15T05:04:14;17.73;;;9.88;;
16460;SDS011;8341;42.048;24.650;2022-11-15T05:06:47;13.25;;;8.13;;
16460;SDS011;8341;42.048;24.650;2022-11-15T05:09:16;16.98;;;9.30;;
16460;SDS011;8341;42.048;24.650;2022-11-15T05:11:44;17.48;;;10.88;;
16460;SDS011;8341;42.048;24.650;2022-11-15T05:14:11;16.08;;;9.52;;
16460;SDS011;8341;42.048;24.650;2022-11-15T05:16:38;12.05;;;8.32;;
16460;SDS011;8341;42.048;24.650;2022-11-15T05:19:05;12.27;;;7.40;;
16460;SDS011;8341;42.048;24.650;2022-11-15T05:21:33;11.88;;;7.63;;
16460;SDS011;8341;42.048;24.650;2022-11-15T05:24:00;10.55;;;7.00;;
16460;SDS011;8341;42.048;24.650;2022-11-15T05:26:29;12.30;;;7.30;;
16460;SDS011;8341;42.048;24.650;2022-11-15T05:28:56;10.53;;;6.77;;
16460;SDS011;8341;42.048;24.650;2022-11-15T05:31:25;11.57;;;7.78;;
16460;SDS011;8341;42.048;24.650;2022-11-15T05:33:53;13.23;;;8.50;;
16460;SDS011;8341;42.048;24.650;2022-11-15T05:36:24;14.68;;;8.73;;
16460;SDS011;8341;42.048;24.650;2022-11-15T05:38:55;26.52;;;18.05;;
16460;SDS011;8341;42.048;24.650;2022-11-15T05:41:25;24.70;;;16.70;;
16460;SDS011;8341;42.048;24.650;2022-11-15T05:43:59;43.42;;;27.10;;
16460;SDS011;8341;42.048;24.650;2022-11-15T05:46:27;23.15;;;15.35;;
16460;SDS011;8341;42.048;24.650;2022-11-15T05:48:55;16.05;;;10.52;;
16460;SDS011;8341;42.048;24.650;2022-11-15T05:51:24;16.98;;;11.20;;
16460;SDS011;8341;42.048;24.650;2022-11-15T05:53:53;18.00;;;10.85;;
16460;SDS011;8341;42.048;24.650;2022-11-15T05:56:23;14.73;;;9.07;;
16460;SDS011;8341;42.048;24.650;2022-11-15T05:58:51;14.07;;;8.60;;
16460;SDS011;8341;42.048;24.650;2022-11-15T06:01:20;12.13;;;8.15;;
16460;SDS011;8341;42.048;24.650;2022-11-15T06:03:48;13.40;;;8.05;;
16460;SDS011;8341;42.048;24.650;2022-11-15T06:06:15;15.63;;;9.32;;
16460;SDS011;8341;42.048;24.650;2022-11-15T06:08:42;16.98;;;9.40;;
16460;SDS011;8341;42.048;24.650;2022-11-15T06:11:10;29.42;;;15.02;;
16460;SDS011;8341;42.048;24.650;2022-11-15T06:13:37;29.38;;;17.55;;
16460;SDS011;8341;42.048;24.650;2022-11-15T06:16:04;49.95;;;29.65;;
16460;SDS011;8341;42.048;24.650;2022-11-15T06:18:33;17.02;;;10.55;;
16460;SDS011;8341;42.048;24.650;2022-11-15T06:21:01;16.13;;;9.30;;
16460;SDS011;8341;42.048;24.650;2022-11-15T06:23:28;16.10;;;8.40;;
16460;SDS011;8341;42.048;24.650;2022-11-15T06:25:58;14.57;;;7.72;;
16460;SDS011;8341;42.048;24.650;2022-11-15T06:28:27;13.48;;;8.65;;
16460;SDS011;8341;42.048;24.650;2022-11-15T06:30:55;15.38;;;10.27;;
16460;SDS011;8341;42.048;24.650;2022-11-15T06:33:22;18.42;;;11.02;;
16460;SDS011;8341;42.048;24.650;2022-11-15T06:35:50;17.38;;;10.52;;
16460;SDS011;8341;42.048;24.650;2022-11-15T06:38:17;20.00;;;10.95;;
16460;SDS011;8341;42.048;24.650;2022-11-15T06:40:44;16.00;;;9.45;;
16460;SDS011;8341;42.048;24.650;2022-11-15T06:43:11;20.15;;;9.38;;
16460;SDS011;8341;42.048;24.650;2022-11-15T06:45:39;15.75;;;9.85;;
16460;SDS011;8341;42.048;24.650;2022-11-15T06:48:06;15.32;;;9.95;;
16460;SDS011;8341;42.048;24.650;2022-11-15T06:50:33;15.52;;;8.80;;
16460;SDS011;8341;42.048;24.650;2022-11-15T06:53:03;13.30;;;9.07;;
16460;SDS011;8341;42.048;24.650;2022-11-15T06:55:30;14.70;;;9.25;;
16460;SDS011;8341;42.048;24.650;2022-11-15T06:57:57;12.07;;;8.23;;
16460;SDS011;8341;42.048;24.650;2022-11-15T07:00:24;10.40;;;7.32;;
16460;SDS011;8341;42.048;24.650;2022-11-15T07:02:51;12.00;;;7.20;;
16460;SDS011;8341;42.048;24.650;2022-11-15T07:05:18;12.68;;;6.90;;
16460;SDS011;8341;42.048;24.650;2022-11-15T07:07:50;11.35;;;7.53;;
16460;SDS011;8341;42.048;24.650;2022-11-15T07:10:20;8.30;;;6.28;;
16460;SDS011;8341;42.048;24.650;2022-11-15T07:12:49;9.45;;;7.15;;
16460;SDS011;8341;42.048;24.650;2022-11-15T07:15:17;10.90;;;7.65;;
16460;SDS011;8341;42.048;24.650;2022-11-15T07:17:45;11.32;;;7.63;;
16460;SDS011;8341;42.048;24.650;2022-11-15T07:20:12;10.40;;;7.75;;
16460;SDS011;8341;42.048;24.650;2022-11-15T07:22:40;18.42;;;11.10;;
16460;SDS011;8341;42.048;24.650;2022-11-15T07:25:08;21.88;;;14.10;;
16460;SDS011;8341;42.048;24.650;2022-11-15T07:27:37;37.20;;;23.02;;
16460;SDS011;8341;42.048;24.650;2022-11-15T07:30:05;34.95;;;19.98;;
16460;SDS011;8341;42.048;24.650;2022-11-15T07:32:32;51.80;;;29.65;;
16460;SDS011;8341;42.048;24.650;2022-11-15T07:35:00;44.72;;;27.38;;
16460;SDS011;8341;42.048;24.650;2022-11-15T07:37:27;35.95;;;24.52;;
16460;SDS011;8341;42.048;24.650;2022-11-15T07:39:54;15.00;;;10.43;;
16460;SDS011;8341;42.048;24.650;2022-11-15T07:42:21;13.73;;;10.23;;
16460;SDS011;8341;42.048;24.650;2022-11-15T07:45:07;15.63;;;10.68;;
16460;SDS011;8341;42.048;24.650;2022-11-15T07:47:35;13.50;;;10.43;;
16460;SDS011;8341;42.048;24.650;2022-11-15T07:50:02;14.35;;;10.27;;
16460;SDS011;8341;42.048;24.650;2022-11-15T07:52:29;18.60;;;13.05;;
16460;SDS011;8341;42.048;24.650;2022-11-15T07:54:56;17.27;;;13.00;;
16460;SDS011;8341;42.048;24.650;2022-11-15T07:57:24;19.35;;;12.00;;
16460;SDS011;8341;42.048;24.650;2022-11-15T08:00:08;17.13;;;12.05;;
16460;SDS011;8341;42.048;24.650;2022-11-15T08:03:03;18.48;;;11.40;;
16460;SDS011;8341;42.048;24.650;2022-11-15T08:05:32;17.33;;;12.32;;
16460;SDS011;8341;42.048;24.650;2022-11-15T08:08:03;19.08;;;12.65;;
16460;SDS011;8341;42.048;24.650;2022-11-15T08:10:39;17.25;;;12.07;;
16460;SDS011;8341;42.048;24.650;2022-11-15T08:13:07;15.95;;;11.80;;
16460;SDS011;8341;42.048;24.650;2022-11-15T08:15:37;19.17;;;13.40;;
16460;SDS011;8341;42.048;24.650;2022-11-15T08:18:05;20.95;;;13.70;;
16460;SDS011;8341;42.048;24.650;2022-11-15T08:20:35;21.98;;;14.63;;
16460;SDS011;8341;42.048;24.650;2022-11-15T08:23:03;20.60;;;14.32;;
16460;SDS011;8341;42.048;24.650;2022-11-15T08:25:31;19.52;;;13.80;;
16460;SDS011;8341;42.048;24.650;2022-11-15T08:27:59;23.17;;;14.45;;
16460;SDS011;8341;42.048;24.650;2022-11-15T08:30:28;22.60;;;14.75;;
16460;SDS011;8341;42.048;24.650;2022-11-15T08:32:57;21.80;;;14.70;;
16460;SDS011;8341;42.048;24.650;2022-11-15T08:35:24;22.50;;;15.82;;
16460;SDS011;8341;42.048;24.650;2022-11-15T08:37:52;24.98;;;16.70;;
16460;SDS011;8341;42.048;24.650;2022-11-15T08:40:19;25.23;;;16.85;;
16460;SDS011;8341;42.048;24.650;2022-11-15T08:42:47;26.50;;;16.73;;
16460;SDS011;8341;42.048;24.650;2022-11-15T08:45:14;25.00;;;16.67;;
16460;SDS011;8341;42.048;24.650;2022-11-15T08:47:41;24.98;;;17.10;;
16460;SDS011;8341;42.048;24.650;2022-11-15T08:50:10;26.08;;;18.38;;
16460;SDS011;8341;42.048;24.650;2022-11-15T08:52:37;27.85;;;21.15;;
16460;SDS011;8341;42.048;24.650;2022-11-15T08:55:04;26.60;;;19.40;;
16460;SDS011;8341;42.048;24.650;2022-11-15T08:57:32;27.65;;;21.98;;
16460;SDS011;8341;42.048;24.650;2022-11-15T08:59:59;29.73;;;19.00;;
16460;SDS011;8341;42.048;24.650;2022-11-15T09:02:26;30.10;;;19.92;;
16460;SDS011;8341;42.048;24.650;2022-11-15T09:04:53;28.15;;;18.33;;
16460;SDS011;8341;42.048;24.650;2022-11-15T09:07:22;25.67;;;17.60;;
16460;SDS011;8341;42.048;24.650;2022-11-15T09:09:49;29.90;;;20.88;;
16460;SDS011;8341;42.048;24.650;2022-11-15T09:12:16;25.55;;;18.13;;
16460;SDS011;8341;42.048;24.650;2022-11-15T09:14:43;27.63;;;19.92;;
16460;SDS011;8341;42.048;24.650;2022-11-15T09:17:10;24.70;;;17.95;;
16460;SDS011;8341;42.048;24.650;2022-11-15T09:19:37;24.20;;;18.17;;
16460;SDS011;8341;42.048;24.650;2022-11-15T09:22:05;25.63;;;17.98;;
16460;SDS011;8341;42.048;24.650;2022-11-15T09:24:34;24.77;;;17.40;;
16460;SDS011;8341;42.048;24.650;2022-11-15T09:27:02;22.73;;;16.30;;
16460;SDS011;8341;42.048;24.650;2022-11-15T09:29:29;24.65;;;17.67;;
16460;SDS011;8341;42.048;24.650;2022-11-15T09:31:56;25.42;;;17.35;;
16460;SDS011;8341;42.048;24.650;2022-11-15T09:34:23;27.27;;;17.40;;
16460;SDS011;8341;42.048;24.650;2022-11-15T09:36:51;30.25;;;18.40;;
16460;SDS011;8341;42.048;24.650;2022-11-15T09:39:18;26.85;;;18.65;;
16460;SDS011;8341;42.048;24.650;2022-11-15T09:41:50;31.50;;;22.88;;
16460;SDS011;8341;42.048;24.650;2022-11-15T09:44:39;31.33;;;20.77;;
16460;SDS011;8341;42.048;24.650;2022-11-15T09:47:20;29.80;;;19.80;;
16460;SDS011;8341;42.048;24.650;2022-11-15T09:50:08;28.08;;;18.88;;
16460;SDS011;8341;42.048;24.650;2022-11-15T09:52:37;30.92;;;20.08;;
16460;SDS011;8341;42.048;24.650;2022-11-15T09:55:08;28.30;;;18.75;;
16460;SDS011;8341;42.048;24.650;2022-11-15T09:57:41;25.45;;;17.33;;
16460;SDS011;8341;42.048;24.650;2022-11-15T10:00:18;27.88;;;19.38;;
16460;SDS011;8341;42.048;24.650;2022-11-15T10:02:50;29.77;;;20.23;;
16460;SDS011;8341;42.048;24.650;2022-11-15T10:05:29;28.13;;;18.92;;
16460;SDS011;8341;42.048;24.650;2022-11-15T10:07:58;25.92;;;18.42;;
16460;SDS011;8341;42.048;24.650;2022-11-15T10:10:34;25.48;;;18.50;;
16460;SDS011;8341;42.048;24.650;2022-11-15T10:13:07;30.50;;;19.60;;
16460;SDS011;8341;42.048;24.650;2022-11-15T10:15:49;31.02;;;20.55;;
16460;SDS011;8341;42.048;24.650;2022-11-15T10:18:18;28.30;;;19.85;;
16460;SDS011;8341;42.048;24.650;2022-11-15T10:20:54;27.08;;;19.30;;
16460;SDS011;8341;42.048;24.650;2022-11-15T10:23:31;26.67;;;19.55;;
16460;SDS011;8341;42.048;24.650;2022-11-15T10:25:59;28.48;;;19.25;;
16460;SDS011;8341;42.048;24.650;2022-11-15T10:28:28;27.38;;;19.13;;
16460;SDS011;8341;42.048;24.650;2022-11-15T10:30:57;29.85;;;19.42;;
16460;SDS011;8341;42.048;24.650;2022-11-15T10:33:27;26.88;;;18.08;;
16460;SDS011;8341;42.048;24.650;2022-11-15T10:38:52;28.17;;;19.33;;
16460;SDS011;8341;42.048;24.650;2022-11-15T10:41:22;29.88;;;19.25;;
16460;SDS011;8341;42.048;24.650;2022-11-15T10:44:18;27.67;;;20.02;;
16460;SDS011;8341;42.048;24.650;2022-11-15T10:47:04;28.42;;;20.23;;
16460;SDS011;8341;42.048;24.650;2022-11-15T10:49:53;29.10;;;20.85;;
16460;SDS011;8341;42.048;24.650;2022-11-15T10:52:21;28.30;;;20.13;;
16460;SDS011;8341;42.048;24.650;2022-11-15T10:54:50;31.40;;;20.73;;
16460;SDS011;8341;42.048;24.650;2022-11-15T10:57:20;27.25;;;18.63;;
16460;SDS011;8341;42.048;24.650;2022-11-15T10:59:52;31.17;;;18.95;;
16460;SDS011;8341;42.048;24.650;2022-11-15T11:02:24;28.85;;;19.92;;
16460;SDS011;8341;42.048;24.650;2022-11-15T11:04:55;26.98;;;19.55;;
16460;SDS011;8341;42.048;24.650;2022-11-15T11:07:23;33.22;;;22.23;;
16460;SDS011;8341;42.048;24.650;2022-11-15T11:09:56;31.63;;;20.92;;
16460;SDS011;8341;42.048;24.650;2022-11-15T11:12:29;28.05;;;19.75;;
16460;SDS011;8341;42.048;24.650;2022-11-15T11:14:59;29.33;;;20.67;;
16460;SDS011;8341;42.048;24.650;2022-11-15T11:17:32;32.03;;;21.25;;
16460;SDS011;8341;42.048;24.650;2022-11-15T11:20:12;29.27;;;19.63;;
16460;SDS011;8341;42.048;24.650;2022-11-15T11:22:52;27.85;;;20.48;;
16460;SDS011;8341;42.048;24.650;2022-11-15T11:25:30;31.58;;;21.05;;
16460;SDS011;8341;42.048;24.650;2022-11-15T11:28:09;29.63;;;20.42;;
16460;SDS011;8341;42.048;24.650;2022-11-15T11:30:52;32.72;;;20.65;;
16460;SDS011;8341;42.048;24.650;2022-11-15T11:33:28;28.20;;;19.98;;
16460;SDS011;8341;42.048;24.650;2022-11-15T11:36:01;31.13;;;21.83;;
16460;SDS011;8341;42.048;24.650;2022-11-15T11:38:43;32.13;;;20.80;;
16460;SDS011;8341;42.048;24.650;2022-11-15T11:41:20;31.70;;;21.02;;
16460;SDS011;8341;42.048;24.650;2022-11-15T11:44:02;28.05;;;19.73;;
16460;SDS011;8341;42.048;24.650;2022-11-15T11:46:47;30.75;;;20.75;;
16460;SDS011;8341;42.048;24.650;2022-11-15T11:49:16;31.67;;;20.38;;
16460;SDS011;8341;42.048;24.650;2022-11-15T11:51:50;30.80;;;21.52;;
16460;SDS011;8341;42.048;24.650;2022-11-15T11:54:22;36.00;;;22.20;;
16460;SDS011;8341;42.048;24.650;2022-11-15T11:56:58;31.48;;;21.52;;
16460;SDS011;8341;42.048;24.650;2022-11-15T11:59:32;30.60;;;21.58;;
16460;SDS011;8341;42.048;24.650;2022-11-15T12:02:11;32.67;;;21.20;;
16460;SDS011;8341;42.048;24.650;2022-11-15T12:04:45;31.13;;;21.58;;
16460;SDS011;8341;42.048;24.650;2022-11-15T12:07:17;28.60;;;20.85;;
16460;SDS011;8341;42.048;24.650;2022-11-15T12:09:51;30.38;;;21.25;;
16460;SDS011;8341;42.048;24.650;2022-11-15T12:12:24;28.13;;;20.60;;
16460;SDS011;8341;42.048;24.650;2022-11-15T12:14:57;29.90;;;20.50;;
16460;SDS011;8341;42.048;24.650;2022-11-15T12:17:31;30.58;;;20.10;;
16460;SDS011;8341;42.048;24.650;2022-11-15T12:19:59;30.63;;;21.20;;
16460;SDS011;8341;42.048;24.650;2022-11-15T12:22:31;28.52;;;21.02;;
16460;SDS011;8341;42.048;24.650;2022-11-15T12:25:07;32.33;;;22.10;;
16460;SDS011;8341;42.048;24.650;2022-11-15T12:27:46;35.35;;;23.00;;
16460;SDS011;8341;42.048;24.650;2022-11-15T12:30:17;29.60;;;21.45;;
16460;SDS011;8341;42.048;24.650;2022-11-15T12:32:51;33.45;;;22.50;;
16460;SDS011;8341;42.048;24.650;2022-11-15T12:35:24;34.20;;;22.40;;
16460;SDS011;8341;42.048;24.650;2022-11-15T12:37:54;31.65;;;22.48;;
16460;SDS011;8341;42.048;24.650;2022-11-15T12:40:25;30.77;;;21.33;;
16460;SDS011;8341;42.048;24.650;2022-11-15T12:42:58;30.73;;;22.73;;
16460;SDS011;8341;42.048;24.650;2022-11-15T12:45:28;35.22;;;21.25;;
16460;SDS011;8341;42.048;24.650;2022-11-15T12:48:21;28.70;;;21.50;;
16460;SDS011;8341;42.048;24.650;2022-11-15T12:54:50;33.15;;;21.73;;
16460;SDS011;8341;42.048;24.650;2022-11-15T12:57:26;30.23;;;20.73;;
16460;SDS011;8341;42.048;24.650;2022-11-15T12:59:57;29.48;;;20.67;;
16460;SDS011;8341;42.048;24.650;2022-11-15T13:02:28;29.60;;;21.23;;
16460;SDS011;8341;42.048;24.650;2022-11-15T13:07:57;31.33;;;21.25;;
16460;SDS011;8341;42.048;24.650;2022-11-15T13:10:29;29.67;;;21.52;;
16460;SDS011;8341;42.048;24.650;2022-11-15T13:12:57;29.60;;;21.45;;
16460;SDS011;8341;42.048;24.650;2022-11-15T13:15:33;32.17;;;21.10;;
16460;SDS011;8341;42.048;24.650;2022-11-15T13:20:54;30.60;;;20.60;;
16460;SDS011;8341;42.048;24.650;2022-11-15T13:23:23;30.55;;;22.05;;
16460;SDS011;8341;42.048;24.650;2022-11-15T13:28:42;31.73;;;22.30;;
16460;SDS011;8341;42.048;24.650;2022-11-15T13:31:18;31.08;;;21.83;;
16460;SDS011;8341;42.048;24.650;2022-11-15T13:33:49;36.28;;;23.52;;
16460;SDS011;8341;42.048;24.650;2022-11-15T13:36:18;33.03;;;23.73;;
16460;SDS011;8341;42.048;24.650;2022-11-15T13:38:55;35.03;;;24.58;;
16460;SDS011;8341;42.048;24.650;2022-11-15T13:41:27;33.53;;;24.88;;
16460;SDS011;8341;42.048;24.650;2022-11-15T13:43:56;33.70;;;23.83;;
16460;SDS011;8341;42.048;24.650;2022-11-15T13:46:24;37.10;;;25.40;;
16460;SDS011;8341;42.048;24.650;2022-11-15T13:48:54;34.80;;;25.73;;
16460;SDS011;8341;42.048;24.650;2022-11-15T13:51:27;35.25;;;24.52;;
16460;SDS011;8341;42.048;24.650;2022-11-15T13:54:03;37.08;;;24.65;;
16460;SDS011;8341;42.048;24.650;2022-11-15T13:56:40;37.08;;;26.05;;
16460;SDS011;8341;42.048;24.650;2022-11-15T13:59:13;36.60;;;26.52;;
16460;SDS011;8341;42.048;24.650;2022-11-15T14:01:51;38.67;;;26.40;;
16460;SDS011;8341;42.048;24.650;2022-11-15T14:04:19;36.13;;;26.27;;
16460;SDS011;8341;42.048;24.650;2022-11-15T14:06:48;34.70;;;25.50;;
16460;SDS011;8341;42.048;24.650;2022-11-15T14:09:35;35.05;;;25.30;;
16460;SDS011;8341;42.048;24.650;2022-11-15T14:12:22;35.17;;;25.77;;
16460;SDS011;8341;42.048;24.650;2022-11-15T14:14:51;33.45;;;24.35;;
16460;SDS011;8341;42.048;24.650;2022-11-15T14:17:19;37.35;;;26.17;;
16460;SDS011;8341;42.048;24.650;2022-11-15T14:19:48;35.72;;;26.48;;
16460;SDS011;8341;42.048;24.650;2022-11-15T14:22:17;34.10;;;24.80;;
16460;SDS011;8341;42.048;24.650;2022-11-15T14:25:05;35.70;;;25.55;;
16460;SDS011;8341;42.048;24.650;2022-11-15T14:27:39;36.30;;;25.50;;
16460;SDS011;8341;42.048;24.650;2022-11-15T14:30:11;35.65;;;24.65;;
16460;SDS011;8341;42.048;24.650;2022-11-15T14:32:41;34.88;;;25.17;;
16460;SDS011;8341;42.048;24.650;2022-11-15T14:35:12;41.08;;;27.33;;
16460;SDS011;8341;42.048;24.650;2022-11-15T14:37:41;33.40;;;23.98;;
16460;SDS011;8341;42.048;24.650;2022-11-15T14:40:13;41.28;;;28.90;;
16460;SDS011;8341;42.048;24.650;2022-11-15T14:42:41;50.35;;;35.38;;
16460;SDS011;8341;42.048;24.650;2022-11-15T14:45:10;52.72;;;36.53;;
16460;SDS011;8341;42.048;24.650;2022-11-15T14:47:39;45.28;;;31.08;;
16460;SDS011;8341;42.048;24.650;2022-11-15T14:50:10;47.13;;;32.72;;
16460;SDS011;8341;42.048;24.650;2022-11-15T14:52:37;48.58;;;34.70;;
16460;SDS011;8341;42.048;24.650;2022-11-15T14:55:11;82.13;;;53.45;;
16460;SDS011;8341;42.048;24.650;2022-11-15T14:57:44;77.53;;;47.28;;
16460;SDS011;8341;42.048;24.650;2022-11-15T15:00:11;69.32;;;45.00;;
16460;SDS011;8341;42.048;24.650;2022-11-15T15:02:39;55.92;;;36.72;;
16460;SDS011;8341;42.048;24.650;2022-11-15T15:05:12;51.55;;;34.13;;
16460;SDS011;8341;42.048;24.650;2022-11-15T15:07:41;58.72;;;38.50;;
16460;SDS011;8341;42.048;24.650;2022-11-15T15:10:08;80.72;;;53.58;;
16460;SDS011;8341;42.048;24.650;2022-11-15T15:12:37;65.32;;;41.58;;